Bladenboro, NC (28320)

1:32 AM EDT on November 01, 2014 (GMT -0400)
CCSkywatch | Change Station
CLOSE
Current Station
Personal Weather Station
Location: Whiteville, NC
Elevation: 91 ft
Nearby Weather Stations

Elev 91 ft 34.41 °N, 78.75 °W | Updated 11 seconds ago

Mostly Cloudy
Mostly Cloudy
49.2 °F
Feels Like 49 °F
N
0.0
Wind Variable Wind from SSE
Gusts 1.0 mph

Today
High -- | Low -- °F
--% Chance of Precip.
Yesterday
High -- | Low -- °F
Precip. -- in
7:35 AM 6:21 PM
Waxing Gibbous, 63% visible
Pressure 29.73 in
Visibility 10.0 miles
Clouds Overcast 7000 ft
Windchill 49 °F
Dew Point 45 °F
Humidity 85%
Rainfall 0.00 in
Snow Depth Not available.
UV 0 out of 12
Pollen 3.10 out of 12
Air Quality Not available.
Flu Activity Not available.
METAR KLBT 010454Z AUTO 12004KT 10SM OVC070 11/07 A2973 RMK AO2 SLP066 T01110072 402060072

More Conditions Fewer Conditions

Pressure 29.73 in
Visibility 10.0 miles
Clouds Overcast 7000 ft
Windchill 49 °F
Dew Point 45 °F
Humidity 85%
Rainfall 0.00 in
Snow Depth Not available.
UV 0 out of 12
Pollen 3.10 out of 12
Air Quality Not available.
Flu Activity Not available.
METAR KLBT 010454Z AUTO 12004KT 10SM OVC070 11/07 A2973 RMK AO2 SLP066 T01110072 402060072

More Conditions Fewer Conditions

10-Day Weather Forecast

Almanac

Astronomy

Nov. 01, 2014 Rise Set
Actual Time
Civil Twilight
Nautical Twilight
Astronomical Twilight
Moon
Length of Visible Light
Length of Day
Tomorrow will be .
, % of the Moon is Illuminated

Today's Extremes

State Highs State Lows

Community

WunderPhotos

Upload Photos

1,766,859 photos uploaded!

WunderBlogs® & News

Nearby

Air Quality

  Air Quality AQ Index Pollutant
Not available.

Snow Depth

Station Depth Elevation

Earthquake Activity

City Distance Mag. Time & Date
Minimum magnitude displayed is 2.5.

Coastal Water Temperatures

Place Temperature

Nearby Weather Stations